createdAt,value
2023-02-23T00:01:28.925Z,26.08
2023-02-23T00:03:57.056Z,28.15
2023-02-23T00:06:25.655Z,25.85
2023-02-23T00:08:52.863Z,26.85
2023-02-23T00:11:21.347Z,25.55
2023-02-23T00:13:52.406Z,26.30
2023-02-23T00:16:22.345Z,26.17
2023-02-23T00:18:54.848Z,26.23
2023-02-23T00:21:22.719Z,27.58
2023-02-23T00:23:52.520Z,27.77
2023-02-23T00:26:24.068Z,25.70
2023-02-23T00:28:51.143Z,26.50
2023-02-23T00:31:18.624Z,27.67
2023-02-23T00:33:45.540Z,26.00
2023-02-23T00:36:14.720Z,26.42
2023-02-23T00:38:41.874Z,25.77
2023-02-23T00:41:20.223Z,26.63
2023-02-23T00:43:49.710Z,26.52
2023-02-23T00:46:18.675Z,26.80
2023-02-23T00:48:46.055Z,25.98
2023-02-23T00:51:13.319Z,25.55
2023-02-23T00:53:41.025Z,27.17
2023-02-23T00:56:10.856Z,26.38
2023-02-23T00:58:38.103Z,25.27
2023-02-23T01:01:12.633Z,27.70
2023-02-23T01:03:41.321Z,26.75
2023-02-23T01:06:11.986Z,26.60
2023-02-23T01:08:42.541Z,26.88
2023-02-23T01:11:15.781Z,27.52
2023-02-23T01:13:44.767Z,28.40
2023-02-23T01:16:14.767Z,27.90
2023-02-23T01:18:44.423Z,28.80
2023-02-23T01:21:21.223Z,27.52
2023-02-23T01:23:48.479Z,26.92
2023-02-23T01:26:24.079Z,28.02
2023-02-23T01:28:52.179Z,29.42
2023-02-23T01:31:20.615Z,29.95
2023-02-23T01:33:47.926Z,28.65
2023-02-23T01:36:14.800Z,28.83
2023-02-23T01:38:41.659Z,30.23
2023-02-23T01:41:09.066Z,29.05
2023-02-23T01:43:36.959Z,28.33
2023-02-23T01:46:03.818Z,29.65
2023-02-23T01:48:38.172Z,29.90
2023-02-23T01:51:12.308Z,30.98
2023-02-23T01:53:44.155Z,30.65
2023-02-23T01:56:18.624Z,28.70
2023-02-23T01:58:51.852Z,30.42
2023-02-23T02:01:19.357Z,30.30
2023-02-23T02:03:58.237Z,29.80
2023-02-23T02:06:30.190Z,29.17
2023-02-23T02:09:06.230Z,29.73
2023-02-23T02:11:38.898Z,28.75
2023-02-23T02:14:22.446Z,29.88
2023-02-23T02:17:07.305Z,29.70
2023-02-23T02:20:28.690Z,31.15
2023-02-23T02:23:13.910Z,30.70
2023-02-23T02:26:05.022Z,29.60
2023-02-23T02:29:01.603Z,30.30
2023-02-23T02:31:38.161Z,30.38
2023-02-23T02:34:32.589Z,29.20
2023-02-23T02:37:29.042Z,30.75
2023-02-23T02:40:16.925Z,31.08
2023-02-23T02:43:12.606Z,28.02
2023-02-23T02:46:13.586Z,30.30
2023-02-23T02:48:57.750Z,29.08
2023-02-23T02:51:31.353Z,29.67
2023-02-23T02:54:06.488Z,30.45
2023-02-23T02:56:40.056Z,28.80
2023-02-23T02:59:32.905Z,31.67
2023-02-23T03:02:18.685Z,33.65
2023-02-23T03:05:04.138Z,31.27
2023-02-23T03:08:09.113Z,34.78
2023-02-23T03:11:05.181Z,32.92
2023-02-23T03:14:16.979Z,35.33
2023-02-23T03:17:29.132Z,35.63
2023-02-23T03:20:18.569Z,34.45
2023-02-23T03:23:18.643Z,34.38
2023-02-23T03:26:09.581Z,34.33
2023-02-23T03:29:20.513Z,34.67
2023-02-23T03:32:17.203Z,33.78
2023-02-23T03:35:10.481Z,34.90
2023-02-23T03:38:06.880Z,33.60
2023-02-23T03:40:56.638Z,35.25
2023-02-23T03:43:48.792Z,35.17
2023-02-23T03:46:36.790Z,32.72
2023-02-23T03:49:28.036Z,32.75
2023-02-23T03:52:18.459Z,34.53
2023-02-23T03:55:11.760Z,33.80
2023-02-23T03:57:59.835Z,35.10
2023-02-23T04:00:53.212Z,35.60
2023-02-23T04:03:40.273Z,34.67
2023-02-23T04:06:29.621Z,34.25
2023-02-23T04:09:36.861Z,33.08
2023-02-23T04:12:33.875Z,35.33
2023-02-23T04:15:08.356Z,35.97
2023-02-23T04:17:35.553Z,35.25
2023-02-23T04:20:02.588Z,33.97
2023-02-23T04:22:29.209Z,35.80
2023-02-23T04:24:56.129Z,37.15
2023-02-23T04:27:22.853Z,36.15
2023-02-23T04:29:49.863Z,35.70
2023-02-23T04:32:18.726Z,36.03
2023-02-23T04:34:46.120Z,36.88
2023-02-23T04:37:13.534Z,35.20
2023-02-23T04:39:40.683Z,35.55
2023-02-23T04:42:07.343Z,34.97
2023-02-23T04:44:34.036Z,35.78
2023-02-23T04:47:00.784Z,34.33
2023-02-23T04:49:27.616Z,35.13
2023-02-23T04:51:54.262Z,36.78
2023-02-23T04:54:20.896Z,35.97
2023-02-23T04:56:47.663Z,34.35
2023-02-23T04:59:14.446Z,36.13
2023-02-23T05:01:41.186Z,36.65
2023-02-23T05:04:07.874Z,36.30
2023-02-23T05:06:34.546Z,34.70
2023-02-23T05:09:03.154Z,37.85
2023-02-23T05:11:30.272Z,37.63
2023-02-23T05:13:56.916Z,35.38
2023-02-23T05:16:23.676Z,34.88
2023-02-23T05:18:50.427Z,36.03
2023-02-23T05:21:17.560Z,35.95
2023-02-23T05:23:45.099Z,35.55
2023-02-23T05:26:12.834Z,37.97
2023-02-23T05:28:41.465Z,36.13
2023-02-23T05:31:08.490Z,36.33
2023-02-23T05:33:42.679Z,36.75
2023-02-23T05:36:11.678Z,34.83
2023-02-23T05:38:39.679Z,35.13
2023-02-23T05:41:08.108Z,34.65
2023-02-23T05:43:35.141Z,37.45
2023-02-23T05:46:01.971Z,36.67
2023-02-23T05:48:29.420Z,35.20
2023-02-23T05:51:00.591Z,36.25
2023-02-23T05:53:27.209Z,35.78
2023-02-23T05:55:53.873Z,36.67
2023-02-23T05:58:20.582Z,34.70
2023-02-23T06:00:47.238Z,35.83
2023-02-23T06:03:14.792Z,35.17
2023-02-23T06:05:43.058Z,37.72
2023-02-23T06:08:09.739Z,35.38
2023-02-23T06:10:36.359Z,34.85
2023-02-23T06:13:03.400Z,34.72
2023-02-23T06:15:30.132Z,33.97
2023-02-23T06:17:57.168Z,34.25
2023-02-23T06:20:23.839Z,37.13
2023-02-23T06:22:50.520Z,36.55
2023-02-23T06:25:17.220Z,37.40
2023-02-23T06:27:45.329Z,36.63
2023-02-23T06:30:12.837Z,37.75
2023-02-23T06:32:39.584Z,35.13
2023-02-23T06:35:10.559Z,35.33
2023-02-23T06:37:37.244Z,33.47
2023-02-23T06:40:05.051Z,34.55
2023-02-23T06:42:31.805Z,33.85
2023-02-23T06:44:58.468Z,35.22
2023-02-23T06:47:25.564Z,36.40
2023-02-23T06:49:52.242Z,35.17
2023-02-23T06:52:18.920Z,35.08
2023-02-23T06:54:45.694Z,34.60
2023-02-23T06:57:12.395Z,36.03
2023-02-23T06:59:39.182Z,34.60
2023-02-23T07:02:06.124Z,33.35
2023-02-23T07:04:33.459Z,33.92
2023-02-23T07:07:00.136Z,33.97
2023-02-23T07:09:27.038Z,35.22
2023-02-23T07:11:54.433Z,35.53
2023-02-23T07:14:26.404Z,32.90
2023-02-23T07:16:53.944Z,33.67
2023-02-23T07:19:20.599Z,32.50
2023-02-23T07:21:47.445Z,35.75
2023-02-23T07:24:14.170Z,33.72
2023-02-23T07:26:43.400Z,31.80
2023-02-23T07:29:12.234Z,29.75
2023-02-23T07:31:40.090Z,33.22
2023-02-23T07:34:08.208Z,33.13
2023-02-23T07:36:35.365Z,32.15
2023-02-23T07:39:03.294Z,33.63
2023-02-23T07:41:29.938Z,35.78
2023-02-23T07:43:57.789Z,34.20
2023-02-23T07:46:24.420Z,32.78
2023-02-23T07:48:51.039Z,33.35
2023-02-23T07:51:18.411Z,33.88
2023-02-23T07:53:45.711Z,33.53
2023-02-23T07:56:13.229Z,32.33
2023-02-23T07:58:41.846Z,32.92
2023-02-23T08:01:10.328Z,33.65
2023-02-23T08:03:36.984Z,32.58
2023-02-23T08:06:03.973Z,34.38
2023-02-23T08:08:30.738Z,33.10
2023-02-23T08:11:05.076Z,35.13
2023-02-23T08:13:32.035Z,32.80
2023-02-23T08:15:59.053Z,34.38
2023-02-23T08:18:26.184Z,30.38
2023-02-23T08:20:59.195Z,34.13
2023-02-23T08:23:26.252Z,33.47
2023-02-23T08:25:54.650Z,33.30
2023-02-23T08:28:22.028Z,31.80
2023-02-23T08:30:49.036Z,32.17
2023-02-23T08:33:15.791Z,32.03
2023-02-23T08:35:42.531Z,33.00
2023-02-23T08:38:09.204Z,33.92
2023-02-23T08:40:35.950Z,32.80
2023-02-23T08:43:02.564Z,31.52
2023-02-23T08:45:29.334Z,32.97
2023-02-23T08:47:56.777Z,32.58
2023-02-23T08:50:25.793Z,29.95
2023-02-23T08:52:54.404Z,31.27
2023-02-23T08:55:21.640Z,29.60
2023-02-23T08:57:48.589Z,31.48
2023-02-23T09:00:16.620Z,31.60
2023-02-23T09:02:45.025Z,32.00
2023-02-23T09:05:11.823Z,29.45
2023-02-23T09:07:40.010Z,31.60
2023-02-23T09:10:07.310Z,29.63
2023-02-23T09:12:33.940Z,29.17
2023-02-23T09:15:00.664Z,28.83
2023-02-23T09:17:27.505Z,30.65
2023-02-23T09:19:54.190Z,28.45
2023-02-23T09:22:20.889Z,27.77
2023-02-23T09:24:47.581Z,27.15
2023-02-23T09:27:14.751Z,27.00
2023-02-23T09:29:42.420Z,28.60
2023-02-23T09:32:09.622Z,24.45
2023-02-23T09:34:37.614Z,23.40
2023-02-23T09:37:05.093Z,22.38
2023-02-23T09:39:38.079Z,24.23
2023-02-23T09:42:08.516Z,22.80
2023-02-23T09:45:16.822Z,21.80
2023-02-23T09:48:09.484Z,23.02
2023-02-23T09:50:38.037Z,22.25
2023-02-23T09:53:33.848Z,22.63
2023-02-23T09:56:03.036Z,20.33
2023-02-23T09:58:33.691Z,21.88
2023-02-23T10:01:31.414Z,21.45
2023-02-23T10:04:21.349Z,21.85
2023-02-23T10:07:21.043Z,18.65
2023-02-23T10:10:02.673Z,18.45
2023-02-23T10:12:51.782Z,17.42
2023-02-23T10:15:52.631Z,17.23
2023-02-23T10:18:44.110Z,16.27
2023-02-23T10:21:35.376Z,16.50
2023-02-23T10:24:12.871Z,16.55
2023-02-23T10:26:58.434Z,15.55
2023-02-23T10:29:47.660Z,16.08
2023-02-23T10:32:32.483Z,16.20
2023-02-23T10:35:00.045Z,17.13
2023-02-23T10:37:27.599Z,15.43
2023-02-23T10:39:54.507Z,16.33
2023-02-23T10:42:28.930Z,15.40
2023-02-23T10:44:56.837Z,15.75
2023-02-23T10:47:27.714Z,14.23
2023-02-23T10:49:56.240Z,14.25
2023-02-23T10:52:31.129Z,14.30
2023-02-23T10:55:00.401Z,13.98
2023-02-23T10:57:31.117Z,14.43
2023-02-23T11:00:13.361Z,14.20
2023-02-23T11:02:41.590Z,13.82
2023-02-23T11:05:28.894Z,14.52
2023-02-23T11:08:14.214Z,14.48
2023-02-23T11:10:41.460Z,14.75
2023-02-23T11:13:22.803Z,14.77
2023-02-23T11:15:58.404Z,15.38
2023-02-23T11:18:26.426Z,14.07
2023-02-23T11:20:53.396Z,15.27
2023-02-23T11:23:40.606Z,14.80
2023-02-23T11:26:29.067Z,14.30
2023-02-23T11:29:05.612Z,12.75
2023-02-23T11:31:34.950Z,13.02
2023-02-23T11:34:06.345Z,12.55
2023-02-23T11:36:37.070Z,14.07
2023-02-23T11:39:19.897Z,13.05
2023-02-23T11:41:46.575Z,13.40
2023-02-23T11:44:23.921Z,12.82
2023-02-23T11:46:51.943Z,12.18
2023-02-23T11:49:23.507Z,12.23
2023-02-23T11:51:52.224Z,11.75
2023-02-23T11:54:33.575Z,12.23
2023-02-23T11:57:02.558Z,12.80
2023-02-23T11:59:33.584Z,11.23
2023-02-23T12:02:19.003Z,12.18
2023-02-23T12:04:49.393Z,12.27
2023-02-23T12:07:43.073Z,12.10
2023-02-23T12:10:47.441Z,11.10
2023-02-23T12:13:32.870Z,12.73
2023-02-23T12:16:07.500Z,10.55
2023-02-23T12:18:40.147Z,10.35
2023-02-23T12:21:20.181Z,11.00
2023-02-23T12:23:50.805Z,12.05
2023-02-23T12:26:22.541Z,12.52
2023-02-23T12:28:58.848Z,12.02
2023-02-23T12:31:57.754Z,11.63
2023-02-23T12:34:35.820Z,11.43
2023-02-23T12:37:20.084Z,11.57
2023-02-23T12:39:51.527Z,12.32
2023-02-23T12:42:25.863Z,11.25
2023-02-23T12:45:06.402Z,11.38
2023-02-23T12:47:48.768Z,10.80
2023-02-23T12:50:45.640Z,11.55
2023-02-23T12:53:45.748Z,12.02
2023-02-23T12:56:33.348Z,12.35
2023-02-23T12:59:16.565Z,11.90
2023-02-23T13:01:58.566Z,12.73
2023-02-23T13:04:48.588Z,12.25
2023-02-23T13:08:11.574Z,11.55
2023-02-23T13:11:12.199Z,12.70
2023-02-23T13:13:49.543Z,13.65
2023-02-23T13:16:32.312Z,12.90
2023-02-23T13:19:27.315Z,13.10
2023-02-23T13:22:24.108Z,12.98
2023-02-23T13:24:53.856Z,13.05
2023-02-23T13:27:37.528Z,13.18
2023-02-23T13:30:08.899Z,12.85
2023-02-23T13:32:36.336Z,13.10
2023-02-23T13:35:13.720Z,11.60
2023-02-23T13:37:57.880Z,12.70
2023-02-23T13:40:52.055Z,13.65
2023-02-23T13:43:30.230Z,12.90
2023-02-23T13:46:14.712Z,12.90
2023-02-23T13:49:20.581Z,13.30
2023-02-23T13:51:59.120Z,11.20
2023-02-23T13:54:33.041Z,13.63
2023-02-23T13:57:03.506Z,12.73
2023-02-23T13:59:37.253Z,12.93
2023-02-23T14:02:38.193Z,14.00
2023-02-23T14:05:25.025Z,14.07
2023-02-23T14:07:58.976Z,14.35
2023-02-23T14:10:29.528Z,14.10
2023-02-23T14:13:15.450Z,15.30
2023-02-23T14:16:07.156Z,13.85
2023-02-23T14:18:34.807Z,15.88
2023-02-23T14:21:19.198Z,13.57
2023-02-23T14:23:50.419Z,15.02
2023-02-23T14:26:37.276Z,15.38
2023-02-23T14:29:17.055Z,14.70
2023-02-23T14:32:01.330Z,16.02
2023-02-23T14:34:52.621Z,14.43
2023-02-23T14:37:34.531Z,15.15
2023-02-23T14:40:15.265Z,15.05
2023-02-23T14:42:49.363Z,14.35
2023-02-23T14:45:28.711Z,16.52
2023-02-23T14:47:59.874Z,16.27
2023-02-23T14:50:30.258Z,15.48
2023-02-23T14:52:58.280Z,14.35
2023-02-23T14:55:30.791Z,14.80
2023-02-23T14:57:58.016Z,13.15
2023-02-23T15:00:28.351Z,13.75
2023-02-23T15:03:00.137Z,15.00
2023-02-23T15:05:31.411Z,14.07
2023-02-23T15:08:00.701Z,14.50
2023-02-23T15:10:35.415Z,13.43
2023-02-23T15:13:14.603Z,13.57
2023-02-23T15:15:45.215Z,13.63
2023-02-23T15:18:22.223Z,13.30
2023-02-23T15:20:49.895Z,11.95
2023-02-23T15:23:19.064Z,11.57
2023-02-23T15:25:48.109Z,10.95
2023-02-23T15:28:20.938Z,10.52
2023-02-23T15:30:49.071Z,10.52
2023-02-23T15:33:23.255Z,10.60
2023-02-23T15:35:59.811Z,10.38
2023-02-23T15:38:43.070Z,9.52
2023-02-23T15:41:22.940Z,10.18
2023-02-23T15:43:49.646Z,10.00
2023-02-23T15:46:24.729Z,9.90
2023-02-23T15:48:53.301Z,10.55
2023-02-23T15:51:34.116Z,10.80
2023-02-23T15:54:02.700Z,10.13
2023-02-23T15:56:30.691Z,10.93
2023-02-23T15:59:05.573Z,10.93
2023-02-23T16:01:32.709Z,9.52
2023-02-23T16:04:06.393Z,10.18
2023-02-23T16:06:41.814Z,10.25
2023-02-23T16:09:25.465Z,10.85
2023-02-23T16:12:04.964Z,10.23
2023-02-23T16:14:48.996Z,12.30
2023-02-23T16:17:21.733Z,10.30
2023-02-23T16:19:48.500Z,11.07
2023-02-23T16:22:25.427Z,10.35
2023-02-23T16:24:59.602Z,10.55
2023-02-23T16:27:28.145Z,11.05
2023-02-23T16:30:00.562Z,11.93
2023-02-23T16:32:36.104Z,12.45
2023-02-23T16:35:15.483Z,11.00
2023-02-23T16:38:02.137Z,11.00
2023-02-23T16:40:29.093Z,11.77
2023-02-23T16:42:59.492Z,11.18
2023-02-23T16:45:27.202Z,11.90
2023-02-23T16:47:54.166Z,11.52
2023-02-23T16:50:24.222Z,10.60
2023-02-23T16:52:52.911Z,11.48
2023-02-23T16:55:28.415Z,12.60
2023-02-23T16:57:58.791Z,11.57
2023-02-23T17:00:34.699Z,11.02
2023-02-23T17:03:02.107Z,11.52
2023-02-23T17:05:29.220Z,11.07
2023-02-23T17:07:58.148Z,12.77
2023-02-23T17:10:30.878Z,11.30
2023-02-23T17:13:02.535Z,12.75
2023-02-23T17:15:32.660Z,12.88
2023-02-23T17:17:59.343Z,15.55
2023-02-23T17:20:27.783Z,12.43
2023-02-23T17:22:55.991Z,13.75
2023-02-23T17:25:25.509Z,12.63
2023-02-23T17:27:56.624Z,11.88
2023-02-23T17:30:23.674Z,13.05
2023-02-23T17:32:53.171Z,12.68
2023-02-23T17:35:20.723Z,12.95
2023-02-23T17:37:47.852Z,11.95
2023-02-23T17:40:18.147Z,12.48
2023-02-23T17:42:44.928Z,12.38
2023-02-23T17:45:11.635Z,13.30
2023-02-23T17:47:42.619Z,12.70
2023-02-23T17:50:10.052Z,12.70
2023-02-23T17:52:36.883Z,12.05
2023-02-23T17:55:03.910Z,14.23
2023-02-23T17:57:30.996Z,13.70
2023-02-23T17:59:57.970Z,13.68
2023-02-23T18:02:25.010Z,14.23
2023-02-23T18:04:52.282Z,13.57
2023-02-23T18:07:20.743Z,12.40
2023-02-23T18:09:49.979Z,13.93
2023-02-23T18:12:19.099Z,13.60
2023-02-23T18:14:46.400Z,14.30
2023-02-23T18:17:14.113Z,14.82
2023-02-23T18:19:41.082Z,14.25
2023-02-23T18:22:07.944Z,13.10
2023-02-23T18:24:36.068Z,14.23
2023-02-23T18:27:03.272Z,15.20
2023-02-23T18:29:32.559Z,13.85
2023-02-23T18:32:01.134Z,14.40
2023-02-23T18:34:28.942Z,15.95
2023-02-23T18:36:57.418Z,13.00
2023-02-23T18:39:24.543Z,11.30
2023-02-23T18:41:51.174Z,12.68
2023-02-23T18:44:18.227Z,11.45
2023-02-23T18:46:46.344Z,10.32
2023-02-23T18:49:20.165Z,8.88
2023-02-23T18:51:47.684Z,7.97
2023-02-23T18:54:16.828Z,7.38
2023-02-23T18:56:45.436Z,5.68
2023-02-23T18:59:12.636Z,4.90
2023-02-23T19:01:39.702Z,3.97
2023-02-23T19:04:08.114Z,3.75
2023-02-23T19:06:38.855Z,4.07
2023-02-23T19:09:09.603Z,3.85
2023-02-23T19:11:37.655Z,4.97
2023-02-23T19:14:11.034Z,3.80
2023-02-23T19:16:38.358Z,4.63
2023-02-23T19:19:07.605Z,4.55
2023-02-23T19:21:35.106Z,4.38
2023-02-23T19:24:02.789Z,4.13
2023-02-23T19:26:30.654Z,3.80
2023-02-23T19:28:58.180Z,3.30
2023-02-23T19:31:26.044Z,3.38
2023-02-23T19:33:55.829Z,3.55
2023-02-23T19:36:29.345Z,2.70
2023-02-23T19:39:05.584Z,2.70
2023-02-23T19:41:33.652Z,2.50
2023-02-23T19:44:00.818Z,3.03
2023-02-23T19:46:27.860Z,2.80
2023-02-23T19:48:55.835Z,2.95
2023-02-23T19:51:23.727Z,2.75
2023-02-23T19:53:56.440Z,3.40
2023-02-23T19:56:24.898Z,3.08
2023-02-23T19:58:52.194Z,3.08
2023-02-23T20:01:21.451Z,3.30
2023-02-23T20:03:55.305Z,3.47
2023-02-23T20:06:24.544Z,3.33
2023-02-23T20:08:52.555Z,3.50
2023-02-23T20:11:19.990Z,3.72
2023-02-23T20:13:47.231Z,3.17
2023-02-23T20:16:14.928Z,3.97
2023-02-23T20:18:42.677Z,3.75
2023-02-23T20:21:19.380Z,4.38
2023-02-23T20:23:47.179Z,3.95
2023-02-23T20:26:26.423Z,3.97
2023-02-23T20:28:54.703Z,3.67
2023-02-23T20:31:26.577Z,3.38
2023-02-23T20:33:58.728Z,4.95
2023-02-23T20:36:25.933Z,4.47
2023-02-23T20:38:52.842Z,3.47
2023-02-23T20:41:20.306Z,3.40
2023-02-23T20:43:47.742Z,3.28
2023-02-23T20:46:16.486Z,4.82
2023-02-23T20:48:43.220Z,3.33
2023-02-23T20:51:15.063Z,3.78
2023-02-23T20:53:45.195Z,4.13
2023-02-23T20:56:13.146Z,3.90
2023-02-23T20:58:40.279Z,4.00
2023-02-23T21:01:22.915Z,4.72
2023-02-23T21:03:51.426Z,3.85
2023-02-23T21:06:19.715Z,4.00
2023-02-23T21:08:49.084Z,3.72
2023-02-23T21:11:17.442Z,3.38
2023-02-23T21:13:44.467Z,4.07
2023-02-23T21:16:14.934Z,4.57
2023-02-23T21:18:42.613Z,4.47
2023-02-23T21:21:10.156Z,3.70
2023-02-23T21:23:39.167Z,3.38
2023-02-23T21:26:15.874Z,3.75
2023-02-23T21:28:44.269Z,3.22
2023-02-23T21:31:13.415Z,3.67
2023-02-23T21:33:41.584Z,3.75
2023-02-23T21:36:12.425Z,3.70
2023-02-23T21:38:41.293Z,4.15
2023-02-23T21:41:09.508Z,3.83
2023-02-23T21:43:37.871Z,4.47
2023-02-23T21:46:15.719Z,4.63
2023-02-23T21:48:43.298Z,5.03
2023-02-23T21:51:12.607Z,5.07
2023-02-23T21:53:39.799Z,5.13
2023-02-23T21:56:12.922Z,4.63
2023-02-23T21:58:44.262Z,5.68
2023-02-23T22:01:17.521Z,4.25
2023-02-23T22:03:47.455Z,4.15
2023-02-23T22:06:16.818Z,4.30
2023-02-23T22:08:44.691Z,3.33
2023-02-23T22:11:17.362Z,3.92
2023-02-23T22:13:48.738Z,4.25
2023-02-23T22:16:18.597Z,4.15
2023-02-23T22:18:46.471Z,3.50
2023-02-23T22:21:13.822Z,4.88
2023-02-23T22:23:43.690Z,4.60
2023-02-23T22:26:10.489Z,3.88
2023-02-23T22:28:37.222Z,3.50
2023-02-23T22:31:09.628Z,3.35
2023-02-23T22:33:38.904Z,3.13
2023-02-23T22:36:08.117Z,3.42
2023-02-23T22:38:35.340Z,3.97
2023-02-23T22:41:05.391Z,3.03
2023-02-23T22:43:34.082Z,3.38
2023-02-23T22:46:00.960Z,3.35
2023-02-23T22:48:28.692Z,3.45
2023-02-23T22:50:59.600Z,3.72
2023-02-23T22:53:26.647Z,4.22
2023-02-23T22:55:54.899Z,3.65
2023-02-23T22:58:26.298Z,2.80
2023-02-23T23:01:03.927Z,3.28
2023-02-23T23:03:37.727Z,2.83
2023-02-23T23:06:07.944Z,2.90
2023-02-23T23:08:37.020Z,3.75
2023-02-23T23:11:09.393Z,3.97
2023-02-23T23:13:40.259Z,3.50
2023-02-23T23:16:16.944Z,3.22
2023-02-23T23:18:56.177Z,3.60
2023-02-23T23:21:26.203Z,3.83
2023-02-23T23:23:55.663Z,3.08
2023-02-23T23:26:25.573Z,3.35
2023-02-23T23:29:00.693Z,3.80
2023-02-23T23:31:29.791Z,3.42
2023-02-23T23:34:00.138Z,3.58
2023-02-23T23:36:33.249Z,3.80
2023-02-23T23:39:01.348Z,3.10
2023-02-23T23:41:35.195Z,3.28
2023-02-23T23:44:04.885Z,3.28
2023-02-23T23:46:35.328Z,3.30
2023-02-23T23:49:15.731Z,2.92
2023-02-23T23:51:45.336Z,3.92
2023-02-23T23:54:14.519Z,4.38
2023-02-23T23:56:43.505Z,3.10
2023-02-23T23:59:16.322Z,4.40
